sensor_id;sensor_type;location;lat;lon;timestamp;temperature;humidity
45435;DHT22;31183;47.404;8.500;2023-07-31T00:00:17;19.60;99.90
45435;DHT22;31183;47.404;8.500;2023-07-31T00:02:44;19.60;99.90
45435;DHT22;31183;47.404;8.500;2023-07-31T00:05:10;19.60;99.90
45435;DHT22;31183;47.404;8.500;2023-07-31T00:07:37;19.50;99.90
45435;DHT22;31183;47.404;8.500;2023-07-31T00:10:04;19.50;99.90
45435;DHT22;31183;47.404;8.500;2023-07-31T00:12:31;19.60;99.90
45435;DHT22;31183;47.404;8.500;2023-07-31T00:14:57;19.50;99.90
45435;DHT22;31183;47.404;8.500;2023-07-31T00:17:24;19.50;99.90
45435;DHT22;31183;47.404;8.500;2023-07-31T00:19:50;19.50;99.90
45435;DHT22;31183;47.404;8.500;2023-07-31T00:22:17;19.50;99.90
45435;DHT22;31183;47.404;8.500;2023-07-31T00:24:44;19.50;99.90
45435;DHT22;31183;47.404;8.500;2023-07-31T00:27:10;19.40;99.90
45435;DHT22;31183;47.404;8.500;2023-07-31T00:29:37;19.40;99.90
45435;DHT22;31183;47.404;8.500;2023-07-31T00:32:04;19.40;99.90
45435;DHT22;31183;47.404;8.500;2023-07-31T00:34:31;19.30;99.80
45435;DHT22;31183;47.404;8.500;2023-07-31T00:36:57;19.30;99.90
45435;DHT22;31183;47.404;8.500;2023-07-31T00:39:24;19.30;99.90
45435;DHT22;31183;47.404;8.500;2023-07-31T00:41:50;19.30;99.90
45435;DHT22;31183;47.404;8.500;2023-07-31T00:44:17;19.30;99.90
45435;DHT22;31183;47.404;8.500;2023-07-31T00:46:44;19.30;99.90
45435;DHT22;31183;47.404;8.500;2023-07-31T00:49:11;19.20;99.90
45435;DHT22;31183;47.404;8.500;2023-07-31T00:51:38;19.20;99.90
45435;DHT22;31183;47.404;8.500;2023-07-31T00:54:05;19.20;99.90
45435;DHT22;31183;47.404;8.500;2023-07-31T00:56:32;19.20;99.90
45435;DHT22;31183;47.404;8.500;2023-07-31T00:58:59;19.20;99.90
45435;DHT22;31183;47.404;8.500;2023-07-31T01:01:27;19.20;99.90
45435;DHT22;31183;47.404;8.500;2023-07-31T01:03:53;19.20;99.90
45435;DHT22;31183;47.404;8.500;2023-07-31T01:06:31;19.20;99.90
45435;DHT22;31183;47.404;8.500;2023-07-31T01:12:14;19.20;99.90
45435;DHT22;31183;47.404;8.500;2023-07-31T01:15:12;19.20;99.90
45435;DHT22;31183;47.404;8.500;2023-07-31T01:17:38;19.20;99.90
45435;DHT22;31183;47.404;8.500;2023-07-31T01:20:18;19.20;99.90
45435;DHT22;31183;47.404;8.500;2023-07-31T01:28:25;19.20;99.90
45435;DHT22;31183;47.404;8.500;2023-07-31T01:30:55;19.20;99.90
45435;DHT22;31183;47.404;8.500;2023-07-31T01:33:25;19.20;99.90
45435;DHT22;31183;47.404;8.500;2023-07-31T01:35:52;19.10;99.90
45435;DHT22;31183;47.404;8.500;2023-07-31T01:38:22;19.10;99.90
45435;DHT22;31183;47.404;8.500;2023-07-31T01:40:53;19.10;99.90
45435;DHT22;31183;47.404;8.500;2023-07-31T01:43:20;19.10;99.90
45435;DHT22;31183;47.404;8.500;2023-07-31T01:45:46;19.10;99.90
45435;DHT22;31183;47.404;8.500;2023-07-31T01:48:13;19.10;99.90
45435;DHT22;31183;47.404;8.500;2023-07-31T01:50:40;19.10;99.90
45435;DHT22;31183;47.404;8.500;2023-07-31T01:53:06;19.10;99.90
45435;DHT22;31183;47.404;8.500;2023-07-31T01:55:33;19.10;99.90
45435;DHT22;31183;47.404;8.500;2023-07-31T01:58:00;19.10;99.90
45435;DHT22;31183;47.404;8.500;2023-07-31T02:00:26;19.10;99.90
45435;DHT22;31183;47.404;8.500;2023-07-31T02:02:53;19.10;99.90
45435;DHT22;31183;47.404;8.500;2023-07-31T02:05:20;19.10;99.90
45435;DHT22;31183;47.404;8.500;2023-07-31T02:07:46;19.10;99.90
45435;DHT22;31183;47.404;8.500;2023-07-31T02:10:14;19.10;99.90
45435;DHT22;31183;47.404;8.500;2023-07-31T02:12:40;19.10;99.90
45435;DHT22;31183;47.404;8.500;2023-07-31T02:15:07;19.10;99.90
45435;DHT22;31183;47.404;8.500;2023-07-31T02:17:34;19.10;99.90
45435;DHT22;31183;47.404;8.500;2023-07-31T02:20:00;19.10;99.90
45435;DHT22;31183;47.404;8.500;2023-07-31T02:22:27;19.10;99.90
45435;DHT22;31183;47.404;8.500;2023-07-31T02:24:54;19.10;99.90
45435;DHT22;31183;47.404;8.500;2023-07-31T02:27:20;19.10;99.90
45435;DHT22;31183;47.404;8.500;2023-07-31T02:29:50;19.10;99.90
45435;DHT22;31183;47.404;8.500;2023-07-31T02:32:17;19.00;99.90
45435;DHT22;31183;47.404;8.500;2023-07-31T02:34:43;19.00;99.90
45435;DHT22;31183;47.404;8.500;2023-07-31T02:37:10;19.00;99.90
45435;DHT22;31183;47.404;8.500;2023-07-31T02:39:37;18.90;99.90
45435;DHT22;31183;47.404;8.500;2023-07-31T02:42:03;18.90;99.90
45435;DHT22;31183;47.404;8.500;2023-07-31T02:44:30;18.90;99.90
45435;DHT22;31183;47.404;8.500;2023-07-31T02:46:57;18.80;99.90
45435;DHT22;31183;47.404;8.500;2023-07-31T02:49:23;18.80;99.90
45435;DHT22;31183;47.404;8.500;2023-07-31T02:51:50;18.80;99.90
45435;DHT22;31183;47.404;8.500;2023-07-31T02:54:17;18.70;99.90
45435;DHT22;31183;47.404;8.500;2023-07-31T02:56:43;18.70;99.90
45435;DHT22;31183;47.404;8.500;2023-07-31T02:59:10;18.70;99.90
45435;DHT22;31183;47.404;8.500;2023-07-31T03:01:37;18.70;99.90
45435;DHT22;31183;47.404;8.500;2023-07-31T03:04:04;18.70;99.90
45435;DHT22;31183;47.404;8.500;2023-07-31T03:06:31;18.70;99.90
45435;DHT22;31183;47.404;8.500;2023-07-31T03:08:57;18.60;99.90
45435;DHT22;31183;47.404;8.500;2023-07-31T03:11:24;18.60;99.90
45435;DHT22;31183;47.404;8.500;2023-07-31T03:13:50;18.60;99.90
45435;DHT22;31183;47.404;8.500;2023-07-31T03:16:17;18.60;99.90
45435;DHT22;31183;47.404;8.500;2023-07-31T03:18:44;18.60;99.90
45435;DHT22;31183;47.404;8.500;2023-07-31T03:21:11;18.50;99.90
45435;DHT22;31183;47.404;8.500;2023-07-31T03:23:37;18.50;99.90
45435;DHT22;31183;47.404;8.500;2023-07-31T03:26:07;18.50;99.90
45435;DHT22;31183;47.404;8.500;2023-07-31T03:28:34;18.50;99.90
45435;DHT22;31183;47.404;8.500;2023-07-31T03:31:01;18.50;99.90
45435;DHT22;31183;47.404;8.500;2023-07-31T03:33:27;18.50;99.90
45435;DHT22;31183;47.404;8.500;2023-07-31T03:35:54;18.50;99.90
45435;DHT22;31183;47.404;8.500;2023-07-31T03:38:21;18.50;99.90
45435;DHT22;31183;47.404;8.500;2023-07-31T03:40:48;18.40;99.90
45435;DHT22;31183;47.404;8.500;2023-07-31T03:43:15;18.50;99.90
45435;DHT22;31183;47.404;8.500;2023-07-31T03:45:42;18.40;99.90
45435;DHT22;31183;47.404;8.500;2023-07-31T03:48:09;18.40;99.90
45435;DHT22;31183;47.404;8.500;2023-07-31T03:50:35;18.40;99.90
45435;DHT22;31183;47.404;8.500;2023-07-31T03:53:02;18.40;99.90
45435;DHT22;31183;47.404;8.500;2023-07-31T03:55:29;18.40;99.90
45435;DHT22;31183;47.404;8.500;2023-07-31T03:57:56;18.30;99.90
45435;DHT22;31183;47.404;8.500;2023-07-31T04:00:22;18.30;99.90
45435;DHT22;31183;47.404;8.500;2023-07-31T04:02:49;18.30;99.90
45435;DHT22;31183;47.404;8.500;2023-07-31T04:05:16;18.30;99.90
45435;DHT22;31183;47.404;8.500;2023-07-31T04:07:43;18.30;99.90
45435;DHT22;31183;47.404;8.500;2023-07-31T04:10:09;18.30;99.90
45435;DHT22;31183;47.404;8.500;2023-07-31T04:12:39;18.30;99.90
45435;DHT22;31183;47.404;8.500;2023-07-31T04:15:06;18.30;99.90
45435;DHT22;31183;47.404;8.500;2023-07-31T04:17:33;18.30;99.90
45435;DHT22;31183;47.404;8.500;2023-07-31T04:19:59;18.30;99.90
45435;DHT22;31183;47.404;8.500;2023-07-31T04:22:27;18.30;99.90
45435;DHT22;31183;47.404;8.500;2023-07-31T04:24:53;18.30;99.90
45435;DHT22;31183;47.404;8.500;2023-07-31T04:27:20;18.30;99.90
45435;DHT22;31183;47.404;8.500;2023-07-31T04:29:47;18.30;99.90
45435;DHT22;31183;47.404;8.500;2023-07-31T04:32:14;18.30;99.90
45435;DHT22;31183;47.404;8.500;2023-07-31T04:34:43;18.30;99.90
45435;DHT22;31183;47.404;8.500;2023-07-31T04:37:09;18.30;99.90
45435;DHT22;31183;47.404;8.500;2023-07-31T04:39:36;18.30;99.90
45435;DHT22;31183;47.404;8.500;2023-07-31T04:42:03;18.30;99.90
45435;DHT22;31183;47.404;8.500;2023-07-31T04:44:29;18.30;99.90
45435;DHT22;31183;47.404;8.500;2023-07-31T04:46:56;18.30;99.90
45435;DHT22;31183;47.404;8.500;2023-07-31T04:49:23;18.30;99.90
45435;DHT22;31183;47.404;8.500;2023-07-31T04:51:50;18.30;99.90
45435;DHT22;31183;47.404;8.500;2023-07-31T04:54:16;18.30;99.90
45435;DHT22;31183;47.404;8.500;2023-07-31T04:56:43;18.30;99.90
45435;DHT22;31183;47.404;8.500;2023-07-31T04:59:10;18.30;99.90
45435;DHT22;31183;47.404;8.500;2023-07-31T05:01:36;18.30;99.90
45435;DHT22;31183;47.404;8.500;2023-07-31T05:04:03;18.30;99.90
45435;DHT22;31183;47.404;8.500;2023-07-31T05:06:30;18.30;99.90
45435;DHT22;31183;47.404;8.500;2023-07-31T05:08:56;18.20;99.90
45435;DHT22;31183;47.404;8.500;2023-07-31T05:11:23;18.20;99.90
45435;DHT22;31183;47.404;8.500;2023-07-31T05:13:50;18.20;99.90
45435;DHT22;31183;47.404;8.500;2023-07-31T05:16:16;18.30;99.90
45435;DHT22;31183;47.404;8.500;2023-07-31T05:18:43;18.30;99.90
45435;DHT22;31183;47.404;8.500;2023-07-31T05:21:10;18.30;99.90
45435;DHT22;31183;47.404;8.500;2023-07-31T05:23:36;18.20;99.90
45435;DHT22;31183;47.404;8.500;2023-07-31T05:26:07;18.20;99.90
45435;DHT22;31183;47.404;8.500;2023-07-31T05:28:35;18.10;99.90
45435;DHT22;31183;47.404;8.500;2023-07-31T05:31:03;18.00;99.90
45435;DHT22;31183;47.404;8.500;2023-07-31T05:33:30;17.90;99.90
45435;DHT22;31183;47.404;8.500;2023-07-31T05:35:57;17.90;99.90
45435;DHT22;31183;47.404;8.500;2023-07-31T05:38:24;17.80;99.90
45435;DHT22;31183;47.404;8.500;2023-07-31T05:40:51;17.80;99.90
45435;DHT22;31183;47.404;8.500;2023-07-31T05:43:17;17.80;99.90
45435;DHT22;31183;47.404;8.500;2023-07-31T05:45:44;17.80;99.90
45435;DHT22;31183;47.404;8.500;2023-07-31T05:48:10;17.80;99.90
45435;DHT22;31183;47.404;8.500;2023-07-31T05:50:37;17.80;99.90
45435;DHT22;31183;47.404;8.500;2023-07-31T05:53:06;17.80;99.90
45435;DHT22;31183;47.404;8.500;2023-07-31T05:55:34;17.80;99.90
45435;DHT22;31183;47.404;8.500;2023-07-31T05:58:01;17.80;99.90
45435;DHT22;31183;47.404;8.500;2023-07-31T06:00:27;17.80;99.90
45435;DHT22;31183;47.404;8.500;2023-07-31T06:02:54;17.80;99.90
45435;DHT22;31183;47.404;8.500;2023-07-31T06:05:21;17.80;99.90
45435;DHT22;31183;47.404;8.500;2023-07-31T06:07:48;17.80;99.90
45435;DHT22;31183;47.404;8.500;2023-07-31T06:10:14;17.70;99.90
45435;DHT22;31183;47.404;8.500;2023-07-31T06:12:41;17.70;99.90
45435;DHT22;31183;47.404;8.500;2023-07-31T06:15:08;17.60;99.90
45435;DHT22;31183;47.404;8.500;2023-07-31T06:17:35;17.60;99.90
45435;DHT22;31183;47.404;8.500;2023-07-31T06:20:02;17.60;99.90
45435;DHT22;31183;47.404;8.500;2023-07-31T06:22:31;17.50;99.90
45435;DHT22;31183;47.404;8.500;2023-07-31T06:24:58;17.50;99.90
45435;DHT22;31183;47.404;8.500;2023-07-31T06:27:25;17.50;99.90
45435;DHT22;31183;47.404;8.500;2023-07-31T06:29:51;17.50;99.90
45435;DHT22;31183;47.404;8.500;2023-07-31T06:32:18;17.50;99.90
45435;DHT22;31183;47.404;8.500;2023-07-31T06:34:45;17.60;99.90
45435;DHT22;31183;47.404;8.500;2023-07-31T06:37:11;17.70;99.90
45435;DHT22;31183;47.404;8.500;2023-07-31T06:39:38;17.70;99.90
45435;DHT22;31183;47.404;8.500;2023-07-31T06:42:05;17.70;99.90
45435;DHT22;31183;47.404;8.500;2023-07-31T06:44:31;17.70;99.90
45435;DHT22;31183;47.404;8.500;2023-07-31T06:46:58;17.60;99.90
45435;DHT22;31183;47.404;8.500;2023-07-31T06:49:25;17.70;99.90
45435;DHT22;31183;47.404;8.500;2023-07-31T06:51:51;17.80;99.90
45435;DHT22;31183;47.404;8.500;2023-07-31T06:54:18;17.90;99.90
45435;DHT22;31183;47.404;8.500;2023-07-31T06:56:45;18.00;99.90
45435;DHT22;31183;47.404;8.500;2023-07-31T06:59:11;18.00;99.90
45435;DHT22;31183;47.404;8.500;2023-07-31T07:01:38;18.30;99.90
45435;DHT22;31183;47.404;8.500;2023-07-31T07:04:05;18.50;99.90
45435;DHT22;31183;47.404;8.500;2023-07-31T07:06:31;18.70;99.90
45435;DHT22;31183;47.404;8.500;2023-07-31T07:08:58;18.70;99.90
45435;DHT22;31183;47.404;8.500;2023-07-31T07:11:25;18.70;99.90
45435;DHT22;31183;47.404;8.500;2023-07-31T07:13:52;18.70;99.40
45435;DHT22;31183;47.404;8.500;2023-07-31T07:16:18;18.60;99.50
45435;DHT22;31183;47.404;8.500;2023-07-31T07:18:45;18.60;99.70
45435;DHT22;31183;47.404;8.500;2023-07-31T07:21:24;18.70;99.70
45435;DHT22;31183;47.404;8.500;2023-07-31T07:23:50;18.90;99.30
45435;DHT22;31183;47.404;8.500;2023-07-31T07:26:17;19.00;98.30
45435;DHT22;31183;47.404;8.500;2023-07-31T07:28:44;19.10;97.70
45435;DHT22;31183;47.404;8.500;2023-07-31T07:31:10;19.10;97.60
45435;DHT22;31183;47.404;8.500;2023-07-31T07:33:37;19.30;97.80
45435;DHT22;31183;47.404;8.500;2023-07-31T07:36:04;19.40;97.10
45435;DHT22;31183;47.404;8.500;2023-07-31T07:38:32;19.40;97.20
45435;DHT22;31183;47.404;8.500;2023-07-31T07:40:59;19.40;97.00
45435;DHT22;31183;47.404;8.500;2023-07-31T07:43:25;19.70;96.90
45435;DHT22;31183;47.404;8.500;2023-07-31T07:45:52;19.90;96.30
45435;DHT22;31183;47.404;8.500;2023-07-31T07:48:19;20.00;95.10
45435;DHT22;31183;47.404;8.500;2023-07-31T07:50:46;20.00;95.10
45435;DHT22;31183;47.404;8.500;2023-07-31T07:53:13;20.00;95.10
45435;DHT22;31183;47.404;8.500;2023-07-31T07:55:40;20.20;95.30
45435;DHT22;31183;47.404;8.500;2023-07-31T07:58:08;20.30;94.70
45435;DHT22;31183;47.404;8.500;2023-07-31T08:00:34;20.40;94.10
45435;DHT22;31183;47.404;8.500;2023-07-31T08:03:01;20.40;94.40
45435;DHT22;31183;47.404;8.500;2023-07-31T08:05:28;20.40;94.40
45435;DHT22;31183;47.404;8.500;2023-07-31T08:07:57;20.50;94.60
45435;DHT22;31183;47.404;8.500;2023-07-31T08:10:23;20.60;94.10
45435;DHT22;31183;47.404;8.500;2023-07-31T08:12:50;20.70;93.40
45435;DHT22;31183;47.404;8.500;2023-07-31T08:15:19;20.70;93.10
45435;DHT22;31183;47.404;8.500;2023-07-31T08:17:45;20.80;92.90
45435;DHT22;31183;47.404;8.500;2023-07-31T08:20:12;21.00;92.90
45435;DHT22;31183;47.404;8.500;2023-07-31T08:22:39;21.10;91.90
45435;DHT22;31183;47.404;8.500;2023-07-31T08:25:06;21.20;91.20
45435;DHT22;31183;47.404;8.500;2023-07-31T08:27:33;21.40;91.60
45435;DHT22;31183;47.404;8.500;2023-07-31T08:29:59;21.60;90.60
45435;DHT22;31183;47.404;8.500;2023-07-31T08:32:26;21.50;90.30
45435;DHT22;31183;47.404;8.500;2023-07-31T08:34:53;21.30;90.70
45435;DHT22;31183;47.404;8.500;2023-07-31T08:37:20;21.20;90.20
45435;DHT22;31183;47.404;8.500;2023-07-31T08:39:46;21.10;90.40
45435;DHT22;31183;47.404;8.500;2023-07-31T08:42:13;21.00;90.20
45435;DHT22;31183;47.404;8.500;2023-07-31T08:44:40;20.80;89.70
45435;DHT22;31183;47.404;8.500;2023-07-31T08:47:08;20.60;90.60
45435;DHT22;31183;47.404;8.500;2023-07-31T08:49:35;20.70;90.60
45435;DHT22;31183;47.404;8.500;2023-07-31T08:52:03;20.60;90.70
45435;DHT22;31183;47.404;8.500;2023-07-31T08:54:30;20.50;90.70
45435;DHT22;31183;47.404;8.500;2023-07-31T08:56:59;20.60;91.30
45435;DHT22;31183;47.404;8.500;2023-07-31T08:59:31;20.90;90.90
45435;DHT22;31183;47.404;8.500;2023-07-31T09:02:07;21.10;90.30
45435;DHT22;31183;47.404;8.500;2023-07-31T09:04:34;21.10;90.30
45435;DHT22;31183;47.404;8.500;2023-07-31T09:07:03;21.20;90.50
45435;DHT22;31183;47.404;8.500;2023-07-31T09:09:31;21.20;90.20
45435;DHT22;31183;47.404;8.500;2023-07-31T09:11:58;21.10;90.00
45435;DHT22;31183;47.404;8.500;2023-07-31T09:14:26;21.10;89.10
45435;DHT22;31183;47.404;8.500;2023-07-31T09:16:57;21.10;88.60
45435;DHT22;31183;47.404;8.500;2023-07-31T09:19:35;21.20;88.20
45435;DHT22;31183;47.404;8.500;2023-07-31T09:22:04;21.50;87.60
45435;DHT22;31183;47.404;8.500;2023-07-31T09:24:33;21.70;87.30
45435;DHT22;31183;47.404;8.500;2023-07-31T09:27:01;21.90;86.20
45435;DHT22;31183;47.404;8.500;2023-07-31T09:29:28;22.10;85.30
45435;DHT22;31183;47.404;8.500;2023-07-31T09:31:56;22.30;85.60
45435;DHT22;31183;47.404;8.500;2023-07-31T09:34:37;22.50;83.10
45435;DHT22;31183;47.404;8.500;2023-07-31T09:37:05;22.70;83.10
45435;DHT22;31183;47.404;8.500;2023-07-31T09:39:32;22.80;82.10
45435;DHT22;31183;47.404;8.500;2023-07-31T09:41:58;22.90;81.40
45435;DHT22;31183;47.404;8.500;2023-07-31T09:44:38;23.10;80.40
45435;DHT22;31183;47.404;8.500;2023-07-31T09:47:07;23.10;78.80
45435;DHT22;31183;47.404;8.500;2023-07-31T09:49:47;23.10;79.80
45435;DHT22;31183;47.404;8.500;2023-07-31T09:52:13;23.30;79.90
45435;DHT22;31183;47.404;8.500;2023-07-31T09:54:40;23.50;77.60
45435;DHT22;31183;47.404;8.500;2023-07-31T09:57:08;23.60;76.70
45435;DHT22;31183;47.404;8.500;2023-07-31T09:59:35;23.50;74.70
45435;DHT22;31183;47.404;8.500;2023-07-31T10:02:02;23.30;74.90
45435;DHT22;31183;47.404;8.500;2023-07-31T10:04:29;23.10;76.00
45435;DHT22;31183;47.404;8.500;2023-07-31T10:06:58;23.10;77.30
45435;DHT22;31183;47.404;8.500;2023-07-31T10:09:27;23.10;77.40
45435;DHT22;31183;47.404;8.500;2023-07-31T10:12:00;23.10;77.70
45435;DHT22;31183;47.404;8.500;2023-07-31T10:14:31;22.90;76.40
45435;DHT22;31183;47.404;8.500;2023-07-31T10:16:58;22.70;74.50
45435;DHT22;31183;47.404;8.500;2023-07-31T10:19:26;22.50;75.60
45435;DHT22;31183;47.404;8.500;2023-07-31T10:21:53;22.30;74.90
45435;DHT22;31183;47.404;8.500;2023-07-31T10:24:23;22.20;76.30
45435;DHT22;31183;47.404;8.500;2023-07-31T10:26:51;22.30;77.80
45435;DHT22;31183;47.404;8.500;2023-07-31T10:29:19;22.30;76.70
45435;DHT22;31183;47.404;8.500;2023-07-31T10:31:47;22.30;77.60
45435;DHT22;31183;47.404;8.500;2023-07-31T10:34:14;22.30;78.40
45435;DHT22;31183;47.404;8.500;2023-07-31T10:36:41;22.30;78.50
45435;DHT22;31183;47.404;8.500;2023-07-31T10:39:34;22.30;78.90
45435;DHT22;31183;47.404;8.500;2023-07-31T10:42:14;22.40;77.20
45435;DHT22;31183;47.404;8.500;2023-07-31T10:44:46;22.30;78.00
45435;DHT22;31183;47.404;8.500;2023-07-31T10:47:15;22.30;77.20
45435;DHT22;31183;47.404;8.500;2023-07-31T10:49:45;22.30;77.50
45435;DHT22;31183;47.404;8.500;2023-07-31T10:52:13;22.30;77.60
45435;DHT22;31183;47.404;8.500;2023-07-31T10:54:40;22.40;78.00
45435;DHT22;31183;47.404;8.500;2023-07-31T10:57:19;22.50;79.10
45435;DHT22;31183;47.404;8.500;2023-07-31T10:59:47;22.50;77.50
45435;DHT22;31183;47.404;8.500;2023-07-31T11:02:27;22.50;79.00
45435;DHT22;31183;47.404;8.500;2023-07-31T11:05:09;22.50;79.10
45435;DHT22;31183;47.404;8.500;2023-07-31T11:07:49;22.40;77.70
45435;DHT22;31183;47.404;8.500;2023-07-31T11:10:17;22.40;80.10
45435;DHT22;31183;47.404;8.500;2023-07-31T11:12:45;22.40;79.30
45435;DHT22;31183;47.404;8.500;2023-07-31T11:15:12;22.40;77.40
45435;DHT22;31183;47.404;8.500;2023-07-31T11:17:39;22.40;77.20
45435;DHT22;31183;47.404;8.500;2023-07-31T11:20:07;22.40;77.60
45435;DHT22;31183;47.404;8.500;2023-07-31T11:22:36;22.40;75.90
45435;DHT22;31183;47.404;8.500;2023-07-31T11:25:03;22.40;76.00
45435;DHT22;31183;47.404;8.500;2023-07-31T11:27:30;22.50;76.80
45435;DHT22;31183;47.404;8.500;2023-07-31T11:30:01;22.50;76.70
45435;DHT22;31183;47.404;8.500;2023-07-31T11:32:28;22.50;76.50
45435;DHT22;31183;47.404;8.500;2023-07-31T11:34:55;22.40;76.10
45435;DHT22;31183;47.404;8.500;2023-07-31T11:37:22;22.40;77.20
45435;DHT22;31183;47.404;8.500;2023-07-31T11:40:02;22.40;78.30
45435;DHT22;31183;47.404;8.500;2023-07-31T11:42:30;22.40;78.50
45435;DHT22;31183;47.404;8.500;2023-07-31T11:44:56;22.40;78.50
45435;DHT22;31183;47.404;8.500;2023-07-31T11:47:25;22.40;78.60
45435;DHT22;31183;47.404;8.500;2023-07-31T11:49:53;22.30;77.90
45435;DHT22;31183;47.404;8.500;2023-07-31T11:52:20;22.30;78.20
45435;DHT22;31183;47.404;8.500;2023-07-31T11:54:47;22.40;76.60
45435;DHT22;31183;47.404;8.500;2023-07-31T11:57:14;22.40;77.10
45435;DHT22;31183;47.404;8.500;2023-07-31T11:59:42;22.30;78.10
45435;DHT22;31183;47.404;8.500;2023-07-31T12:02:09;22.40;77.20
45435;DHT22;31183;47.404;8.500;2023-07-31T12:04:36;22.40;77.40
45435;DHT22;31183;47.404;8.500;2023-07-31T12:07:02;22.40;76.30
45435;DHT22;31183;47.404;8.500;2023-07-31T12:09:29;22.40;76.10
45435;DHT22;31183;47.404;8.500;2023-07-31T12:11:56;22.40;77.40
45435;DHT22;31183;47.404;8.500;2023-07-31T12:14:27;22.40;76.40
45435;DHT22;31183;47.404;8.500;2023-07-31T12:16:59;22.30;77.20
45435;DHT22;31183;47.404;8.500;2023-07-31T12:19:26;22.30;77.50
45435;DHT22;31183;47.404;8.500;2023-07-31T12:22:00;22.30;77.80
45435;DHT22;31183;47.404;8.500;2023-07-31T12:24:27;22.30;78.50
45435;DHT22;31183;47.404;8.500;2023-07-31T12:26:54;22.30;78.30
45435;DHT22;31183;47.404;8.500;2023-07-31T12:29:21;22.30;76.80
45435;DHT22;31183;47.404;8.500;2023-07-31T12:31:48;22.30;75.90
45435;DHT22;31183;47.404;8.500;2023-07-31T12:34:20;22.40;75.90
45435;DHT22;31183;47.404;8.500;2023-07-31T12:36:47;22.40;75.90
45435;DHT22;31183;47.404;8.500;2023-07-31T12:39:17;22.40;76.50
45435;DHT22;31183;47.404;8.500;2023-07-31T12:41:43;22.40;77.70
45435;DHT22;31183;47.404;8.500;2023-07-31T12:44:10;22.30;77.50
45435;DHT22;31183;47.404;8.500;2023-07-31T12:46:37;22.30;78.50
45435;DHT22;31183;47.404;8.500;2023-07-31T12:49:04;22.30;75.70
45435;DHT22;31183;47.404;8.500;2023-07-31T12:51:31;22.40;75.00
45435;DHT22;31183;47.404;8.500;2023-07-31T12:53:57;22.40;76.10
45435;DHT22;31183;47.404;8.500;2023-07-31T12:56:24;22.50;75.40
45435;DHT22;31183;47.404;8.500;2023-07-31T12:58:51;22.50;75.70
45435;DHT22;31183;47.404;8.500;2023-07-31T13:01:17;22.60;76.00
45435;DHT22;31183;47.404;8.500;2023-07-31T13:03:44;22.50;76.50
45435;DHT22;31183;47.404;8.500;2023-07-31T13:06:12;22.60;75.90
45435;DHT22;31183;47.404;8.500;2023-07-31T13:08:39;22.50;76.60
45435;DHT22;31183;47.404;8.500;2023-07-31T13:11:05;22.50;74.40
45435;DHT22;31183;47.404;8.500;2023-07-31T13:13:32;22.60;73.60
45435;DHT22;31183;47.404;8.500;2023-07-31T13:15:59;22.70;72.90
45435;DHT22;31183;47.404;8.500;2023-07-31T13:18:26;22.80;71.90
45435;DHT22;31183;47.404;8.500;2023-07-31T13:20:55;22.80;71.60
45435;DHT22;31183;47.404;8.500;2023-07-31T13:23:22;22.70;71.10
45435;DHT22;31183;47.404;8.500;2023-07-31T13:25:49;22.70;71.10
45435;DHT22;31183;47.404;8.500;2023-07-31T13:28:15;22.70;70.10
45435;DHT22;31183;47.404;8.500;2023-07-31T13:30:42;22.80;70.90
45435;DHT22;31183;47.404;8.500;2023-07-31T13:33:08;22.80;70.50
45435;DHT22;31183;47.404;8.500;2023-07-31T13:35:55;22.80;70.40
45435;DHT22;31183;47.404;8.500;2023-07-31T13:38:21;22.80;70.60
45435;DHT22;31183;47.404;8.500;2023-07-31T13:40:48;22.70;72.20
45435;DHT22;31183;47.404;8.500;2023-07-31T13:43:15;22.70;73.00
45435;DHT22;31183;47.404;8.500;2023-07-31T13:45:41;22.60;72.40
45435;DHT22;31183;47.404;8.500;2023-07-31T13:48:08;22.70;72.70
45435;DHT22;31183;47.404;8.500;2023-07-31T13:50:35;22.70;72.00
45435;DHT22;31183;47.404;8.500;2023-07-31T13:53:02;22.70;72.70
45435;DHT22;31183;47.404;8.500;2023-07-31T13:55:28;22.60;74.10
45435;DHT22;31183;47.404;8.500;2023-07-31T13:57:55;22.60;75.40
45435;DHT22;31183;47.404;8.500;2023-07-31T14:00:22;22.70;75.60
45435;DHT22;31183;47.404;8.500;2023-07-31T14:02:48;22.70;76.10
45435;DHT22;31183;47.404;8.500;2023-07-31T14:05:15;22.70;76.10
45435;DHT22;31183;47.404;8.500;2023-07-31T14:07:42;22.60;76.60
45435;DHT22;31183;47.404;8.500;2023-07-31T14:10:09;22.60;77.10
45435;DHT22;31183;47.404;8.500;2023-07-31T14:12:35;22.60;77.90
45435;DHT22;31183;47.404;8.500;2023-07-31T14:15:09;22.60;78.00
45435;DHT22;31183;47.404;8.500;2023-07-31T14:17:36;22.60;77.90
45435;DHT22;31183;47.404;8.500;2023-07-31T14:20:03;22.60;78.60
45435;DHT22;31183;47.404;8.500;2023-07-31T14:22:31;22.60;78.90
45435;DHT22;31183;47.404;8.500;2023-07-31T14:25:00;22.60;78.70
45435;DHT22;31183;47.404;8.500;2023-07-31T14:27:27;22.60;79.10
45435;DHT22;31183;47.404;8.500;2023-07-31T14:29:53;22.60;78.20
45435;DHT22;31183;47.404;8.500;2023-07-31T14:32:22;22.60;79.00
45435;DHT22;31183;47.404;8.500;2023-07-31T14:34:50;22.60;79.20
45435;DHT22;31183;47.404;8.500;2023-07-31T14:37:16;22.70;78.40
45435;DHT22;31183;47.404;8.500;2023-07-31T14:39:43;22.70;79.50
45435;DHT22;31183;47.404;8.500;2023-07-31T14:42:09;22.60;80.10
45435;DHT22;31183;47.404;8.500;2023-07-31T14:44:36;22.70;80.70
45435;DHT22;31183;47.404;8.500;2023-07-31T14:47:03;22.70;81.10
45435;DHT22;31183;47.404;8.500;2023-07-31T14:49:30;22.70;81.60
45435;DHT22;31183;47.404;8.500;2023-07-31T14:51:56;22.60;81.70
45435;DHT22;31183;47.404;8.500;2023-07-31T14:54:23;22.70;82.00
45435;DHT22;31183;47.404;8.500;2023-07-31T14:56:49;22.70;82.20
45435;DHT22;31183;47.404;8.500;2023-07-31T14:59:16;22.70;82.50
45435;DHT22;31183;47.404;8.500;2023-07-31T15:01:43;22.70;82.90
45435;DHT22;31183;47.404;8.500;2023-07-31T15:04:09;22.70;83.60
45435;DHT22;31183;47.404;8.500;2023-07-31T15:06:36;22.70;83.60
45435;DHT22;31183;47.404;8.500;2023-07-31T15:09:03;22.70;83.40
45435;DHT22;31183;47.404;8.500;2023-07-31T15:11:30;22.70;83.70
45435;DHT22;31183;47.404;8.500;2023-07-31T15:13:56;22.70;84.10
45435;DHT22;31183;47.404;8.500;2023-07-31T15:16:23;22.80;82.70
45435;DHT22;31183;47.404;8.500;2023-07-31T15:18:50;22.80;82.70
45435;DHT22;31183;47.404;8.500;2023-07-31T15:21:16;22.80;82.90
45435;DHT22;31183;47.404;8.500;2023-07-31T15:23:43;22.80;83.30
45435;DHT22;31183;47.404;8.500;2023-07-31T15:26:10;22.80;84.10
45435;DHT22;31183;47.404;8.500;2023-07-31T15:28:36;22.80;84.00
45435;DHT22;31183;47.404;8.500;2023-07-31T15:31:05;22.70;83.80
45435;DHT22;31183;47.404;8.500;2023-07-31T15:33:31;22.80;84.30
45435;DHT22;31183;47.404;8.500;2023-07-31T15:35:58;22.70;84.60
45435;DHT22;31183;47.404;8.500;2023-07-31T15:38:25;22.70;84.90
45435;DHT22;31183;47.404;8.500;2023-07-31T15:40:51;22.70;85.10